sensor_id;sensor_type;location;lat;lon;timestamp;pressure;altitude;pressure_sealevel;temperature
66795;BMP280;53698;52.738;4.752;2022-10-29T00:02:21;102333.91;;;14.72
66795;BMP280;53698;52.738;4.752;2022-10-29T00:04:47;102333.47;;;14.73
66795;BMP280;53698;52.738;4.752;2022-10-29T00:07:12;102334.69;;;14.72
66795;BMP280;53698;52.738;4.752;2022-10-29T00:09:37;102330.38;;;14.71
66795;BMP280;53698;52.738;4.752;2022-10-29T00:12:03;102330.38;;;14.71
66795;BMP280;53698;52.738;4.752;2022-10-29T00:14:28;102314.56;;;14.75
66795;BMP280;53698;52.738;4.752;2022-10-29T00:16:53;102317.66;;;14.77
66795;BMP280;53698;52.738;4.752;2022-10-29T00:19:21;102333.69;;;14.78
66795;BMP280;53698;52.738;4.752;2022-10-29T00:21:47;102323.47;;;14.79
66795;BMP280;53698;52.738;4.752;2022-10-29T00:24:13;102319.84;;;14.82
66795;BMP280;53698;52.738;4.752;2022-10-29T00:26:38;102329.34;;;14.81
66795;BMP280;53698;52.738;4.752;2022-10-29T00:29:04;102323.84;;;14.81
66795;BMP280;53698;52.738;4.752;2022-10-29T00:31:29;102331.63;;;14.82
66795;BMP280;53698;52.738;4.752;2022-10-29T00:33:55;102326.91;;;14.83
66795;BMP280;53698;52.738;4.752;2022-10-29T00:36:21;102326.03;;;14.86
66795;BMP280;53698;52.738;4.752;2022-10-29T00:38:47;102307.13;;;14.88
66795;BMP280;53698;52.738;4.752;2022-10-29T00:41:14;102291.41;;;14.88
66795;BMP280;53698;52.738;4.752;2022-10-29T00:43:40;102301.63;;;14.88
66795;BMP280;53698;52.738;4.752;2022-10-29T00:46:08;102291.84;;;14.87
66795;BMP280;53698;52.738;4.752;2022-10-29T00:48:38;102286.34;;;14.87
66795;BMP280;53698;52.738;4.752;2022-10-29T00:51:05;102296.16;;;14.88
66795;BMP280;53698;52.738;4.752;2022-10-29T00:53:32;102289.03;;;14.90
66795;BMP280;53698;52.738;4.752;2022-10-29T00:55:58;102285.84;;;14.92
66795;BMP280;53698;52.738;4.752;2022-10-29T00:58:23;102270.13;;;14.92
66795;BMP280;53698;52.738;4.752;2022-10-29T01:00:49;102262.22;;;14.94
66795;BMP280;53698;52.738;4.752;2022-10-29T01:03:14;102268.03;;;14.96
66795;BMP280;53698;52.738;4.752;2022-10-29T01:05:39;102273.09;;;14.97
66795;BMP280;53698;52.738;4.752;2022-10-29T01:08:05;102270.66;;;14.99
66795;BMP280;53698;52.738;4.752;2022-10-29T01:10:32;102261.66;;;14.99
66795;BMP280;53698;52.738;4.752;2022-10-29T01:18:04;102270.38;;;15.10
66795;BMP280;53698;52.738;4.752;2022-10-29T01:23:10;102257.72;;;15.12
66795;BMP280;53698;52.738;4.752;2022-10-29T01:28:36;102259.69;;;15.11
66795;BMP280;53698;52.738;4.752;2022-10-29T01:33:50;102242.84;;;15.22
66795;BMP280;53698;52.738;4.752;2022-10-29T01:36:28;102240.56;;;15.20
66795;BMP280;53698;52.738;4.752;2022-10-29T01:39:01;102240.97;;;15.19
66795;BMP280;53698;52.738;4.752;2022-10-29T01:41:46;102238.66;;;15.17
66795;BMP280;53698;52.738;4.752;2022-10-29T01:44:20;102243.53;;;15.13
66795;BMP280;53698;52.738;4.752;2022-10-29T01:46:48;102232.97;;;15.12
66795;BMP280;53698;52.738;4.752;2022-10-29T01:49:17;102235.06;;;15.08
66795;BMP280;53698;52.738;4.752;2022-10-29T01:51:43;102237.59;;;15.03
66795;BMP280;53698;52.738;4.752;2022-10-29T01:54:09;102246.81;;;14.96
66795;BMP280;53698;52.738;4.752;2022-10-29T01:56:35;102245.72;;;14.94
66795;BMP280;53698;52.738;4.752;2022-10-29T01:59:00;102242.31;;;14.90
66795;BMP280;53698;52.738;4.752;2022-10-29T02:06:47;102249.63;;;14.81
66795;BMP280;53698;52.738;4.752;2022-10-29T02:12:15;102234.88;;;14.75
66795;BMP280;53698;52.738;4.752;2022-10-29T02:17:29;102236.66;;;14.69
66795;BMP280;53698;52.738;4.752;2022-10-29T02:19:54;102236.75;;;14.66
66795;BMP280;53698;52.738;4.752;2022-10-29T02:22:20;102229.81;;;14.61
66795;BMP280;53698;52.738;4.752;2022-10-29T02:24:45;102226.38;;;14.58
66795;BMP280;53698;52.738;4.752;2022-10-29T02:27:10;102223.31;;;14.56
66795;BMP280;53698;52.738;4.752;2022-10-29T02:29:36;102219.47;;;14.53
66795;BMP280;53698;52.738;4.752;2022-10-29T02:32:01;102227.38;;;14.51
66795;BMP280;53698;52.738;4.752;2022-10-29T02:34:26;102227.81;;;14.50
66795;BMP280;53698;52.738;4.752;2022-10-29T02:36:52;102222.00;;;14.48
66795;BMP280;53698;52.738;4.752;2022-10-29T02:39:17;102210.75;;;14.42
66795;BMP280;53698;52.738;4.752;2022-10-29T02:41:42;102204.16;;;14.40
66795;BMP280;53698;52.738;4.752;2022-10-29T02:44:07;102203.50;;;14.36
66795;BMP280;53698;52.738;4.752;2022-10-29T02:46:33;102211.41;;;14.34
66795;BMP280;53698;52.738;4.752;2022-10-29T02:49:03;102223.25;;;14.31
66795;BMP280;53698;52.738;4.752;2022-10-29T02:51:28;102221.28;;;14.32
66795;BMP280;53698;52.738;4.752;2022-10-29T02:53:53;102217.75;;;14.31
66795;BMP280;53698;52.738;4.752;2022-10-29T02:56:19;102211.59;;;14.27
66795;BMP280;53698;52.738;4.752;2022-10-29T02:58:44;102217.09;;;14.27
66795;BMP280;53698;52.738;4.752;2022-10-29T03:01:09;102215.66;;;14.23
66795;BMP280;53698;52.738;4.752;2022-10-29T03:03:35;102223.66;;;14.18
66795;BMP280;53698;52.738;4.752;2022-10-29T03:06:00;102210.38;;;14.16
66795;BMP280;53698;52.738;4.752;2022-10-29T03:08:25;102215.09;;;14.16
66795;BMP280;53698;52.738;4.752;2022-10-29T03:10:50;102203.34;;;14.15
66795;BMP280;53698;52.738;4.752;2022-10-29T03:13:16;102220.31;;;14.10
66795;BMP280;53698;52.738;4.752;2022-10-29T03:15:42;102217.16;;;14.12
66795;BMP280;53698;52.738;4.752;2022-10-29T03:18:08;102206.59;;;14.10
66795;BMP280;53698;52.738;4.752;2022-10-29T03:20:33;102198.38;;;14.10
66795;BMP280;53698;52.738;4.752;2022-10-29T03:22:58;102204.31;;;14.09
66795;BMP280;53698;52.738;4.752;2022-10-29T03:25:24;102204.31;;;14.09
66795;BMP280;53698;52.738;4.752;2022-10-29T03:27:50;102202.75;;;14.08
66795;BMP280;53698;52.738;4.752;2022-10-29T03:30:15;102206.28;;;14.08
66795;BMP280;53698;52.738;4.752;2022-10-29T03:32:44;102217.69;;;14.07
66795;BMP280;53698;52.738;4.752;2022-10-29T03:35:10;102216.03;;;14.09
66795;BMP280;53698;52.738;4.752;2022-10-29T03:37:36;102210.53;;;14.09
66795;BMP280;53698;52.738;4.752;2022-10-29T03:40:01;102215.94;;;14.13
66795;BMP280;53698;52.738;4.752;2022-10-29T03:42:27;102212.00;;;14.14
66795;BMP280;53698;52.738;4.752;2022-10-29T03:44:55;102206.75;;;14.19
66795;BMP280;53698;52.738;4.752;2022-10-29T03:47:20;102213.00;;;14.20
66795;BMP280;53698;52.738;4.752;2022-10-29T03:49:46;102213.53;;;14.15
66795;BMP280;53698;52.738;4.752;2022-10-29T03:52:11;102197.28;;;14.20
66795;BMP280;53698;52.738;4.752;2022-10-29T03:54:36;102206.31;;;14.21
66795;BMP280;53698;52.738;4.752;2022-10-29T03:57:01;102207.53;;;14.20
66795;BMP280;53698;52.738;4.752;2022-10-29T03:59:27;102208.72;;;14.19
66795;BMP280;53698;52.738;4.752;2022-10-29T04:01:52;102202.34;;;14.22
66795;BMP280;53698;52.738;4.752;2022-10-29T04:04:17;102203.13;;;14.22
66795;BMP280;53698;52.738;4.752;2022-10-29T04:06:42;102208.94;;;14.24
66795;BMP280;53698;52.738;4.752;2022-10-29T04:09:08;102201.94;;;14.23
66795;BMP280;53698;52.738;4.752;2022-10-29T04:11:33;102209.81;;;14.21
66795;BMP280;53698;52.738;4.752;2022-10-29T04:13:58;102205.09;;;14.22
66795;BMP280;53698;52.738;4.752;2022-10-29T04:16:23;102204.69;;;14.23
66795;BMP280;53698;52.738;4.752;2022-10-29T04:18:49;102210.94;;;14.24
66795;BMP280;53698;52.738;4.752;2022-10-29T04:21:15;102218.25;;;14.14
66795;BMP280;53698;52.738;4.752;2022-10-29T04:23:40;102219.69;;;14.19
66795;BMP280;53698;52.738;4.752;2022-10-29T04:26:05;102205.63;;;14.17
66795;BMP280;53698;52.738;4.752;2022-10-29T04:28:31;102205.63;;;14.17
66795;BMP280;53698;52.738;4.752;2022-10-29T04:30:56;102196.81;;;14.09
66795;BMP280;53698;52.738;4.752;2022-10-29T04:33:21;102198.03;;;14.08
66795;BMP280;53698;52.738;4.752;2022-10-29T04:35:51;102195.03;;;14.03
66795;BMP280;53698;52.738;4.752;2022-10-29T04:38:17;102203.28;;;14.03
66795;BMP280;53698;52.738;4.752;2022-10-29T04:40:42;102206.56;;;13.98
66795;BMP280;53698;52.738;4.752;2022-10-29T04:43:07;102199.09;;;13.99
66795;BMP280;53698;52.738;4.752;2022-10-29T04:45:32;102202.28;;;13.97
66795;BMP280;53698;52.738;4.752;2022-10-29T04:48:01;102204.34;;;13.93
66795;BMP280;53698;52.738;4.752;2022-10-29T04:50:27;102204.88;;;13.89
66795;BMP280;53698;52.738;4.752;2022-10-29T04:52:56;102203.25;;;13.91
66795;BMP280;53698;52.738;4.752;2022-10-29T04:55:21;102198.19;;;13.90
66795;BMP280;53698;52.738;4.752;2022-10-29T04:57:50;102198.19;;;13.90
66795;BMP280;53698;52.738;4.752;2022-10-29T05:00:15;102193.09;;;13.88
66795;BMP280;53698;52.738;4.752;2022-10-29T05:02:40;102200.66;;;13.84
66795;BMP280;53698;52.738;4.752;2022-10-29T05:05:06;102183.78;;;13.86
66795;BMP280;53698;52.738;4.752;2022-10-29T05:07:31;102175.22;;;13.84
66795;BMP280;53698;52.738;4.752;2022-10-29T05:09:56;102184.38;;;13.77
66795;BMP280;53698;52.738;4.752;2022-10-29T05:12:21;102172.63;;;13.77
66795;BMP280;53698;52.738;4.752;2022-10-29T05:14:47;102184.03;;;13.75
66795;BMP280;53698;52.738;4.752;2022-10-29T05:17:12;102176.59;;;13.76
66795;BMP280;53698;52.738;4.752;2022-10-29T05:19:37;102172.28;;;13.75
66795;BMP280;53698;52.738;4.752;2022-10-29T05:22:03;102176.69;;;13.73
66795;BMP280;53698;52.738;4.752;2022-10-29T05:24:28;102175.03;;;13.75
66795;BMP280;53698;52.738;4.752;2022-10-29T05:26:53;102162.19;;;13.72
66795;BMP280;53698;52.738;4.752;2022-10-29T05:29:18;102151.91;;;13.76
66795;BMP280;53698;52.738;4.752;2022-10-29T05:31:44;102137.06;;;13.73
66795;BMP280;53698;52.738;4.752;2022-10-29T05:34:09;102145.38;;;13.70
66795;BMP280;53698;52.738;4.752;2022-10-29T05:36:34;102151.72;;;13.67
66795;BMP280;53698;52.738;4.752;2022-10-29T05:38:59;102149.84;;;13.64
66795;BMP280;53698;52.738;4.752;2022-10-29T05:41:25;102151.50;;;13.62
66795;BMP280;53698;52.738;4.752;2022-10-29T05:43:50;102140.63;;;13.58
66795;BMP280;53698;52.738;4.752;2022-10-29T05:46:15;102150.16;;;13.54
66795;BMP280;53698;52.738;4.752;2022-10-29T05:48:41;102166.69;;;13.51
66795;BMP280;53698;52.738;4.752;2022-10-29T05:51:06;102168.75;;;13.47
66795;BMP280;53698;52.738;4.752;2022-10-29T05:53:31;102162.91;;;13.45
66795;BMP280;53698;52.738;4.752;2022-10-29T05:55:57;102153.16;;;13.44
66795;BMP280;53698;52.738;4.752;2022-10-29T05:58:22;102153.59;;;13.42
66795;BMP280;53698;52.738;4.752;2022-10-29T06:00:48;102156.75;;;13.41
66795;BMP280;53698;52.738;4.752;2022-10-29T06:03:14;102155.22;;;13.40
66795;BMP280;53698;52.738;4.752;2022-10-29T06:05:40;102156.00;;;13.40
66795;BMP280;53698;52.738;4.752;2022-10-29T06:08:05;102151.25;;;13.41
66795;BMP280;53698;52.738;4.752;2022-10-29T06:10:30;102157.53;;;13.41
66795;BMP280;53698;52.738;4.752;2022-10-29T06:12:55;102152.41;;;13.43
66795;BMP280;53698;52.738;4.752;2022-10-29T06:15:21;102146.72;;;13.50
66795;BMP280;53698;52.738;4.752;2022-10-29T06:17:47;102146.28;;;13.52
66795;BMP280;53698;52.738;4.752;2022-10-29T06:20:13;102135.66;;;13.54
66795;BMP280;53698;52.738;4.752;2022-10-29T06:22:38;102133.25;;;13.56
66795;BMP280;53698;52.738;4.752;2022-10-29T06:25:04;102139.06;;;13.57
66795;BMP280;53698;52.738;4.752;2022-10-29T06:27:29;102139.75;;;13.61
66795;BMP280;53698;52.738;4.752;2022-10-29T06:29:54;102138.88;;;13.64
66795;BMP280;53698;52.738;4.752;2022-10-29T06:32:19;102149.00;;;13.67
66795;BMP280;53698;52.738;4.752;2022-10-29T06:34:45;102152.84;;;13.70
66795;BMP280;53698;52.738;4.752;2022-10-29T06:37:10;102139.06;;;13.73
66795;BMP280;53698;52.738;4.752;2022-10-29T06:39:35;102134.66;;;13.75
66795;BMP280;53698;52.738;4.752;2022-10-29T06:42:01;102131.84;;;13.79
66795;BMP280;53698;52.738;4.752;2022-10-29T06:44:28;102133.31;;;13.83
66795;BMP280;53698;52.738;4.752;2022-10-29T06:46:53;102134.72;;;13.88
66795;BMP280;53698;52.738;4.752;2022-10-29T06:49:19;102124.41;;;13.91
66795;BMP280;53698;52.738;4.752;2022-10-29T06:51:44;102130.16;;;13.97
66795;BMP280;53698;52.738;4.752;2022-10-29T06:54:09;102135.13;;;14.02
66795;BMP280;53698;52.738;4.752;2022-10-29T06:56:35;102128.31;;;14.06
66795;BMP280;53698;52.738;4.752;2022-10-29T06:59:00;102132.50;;;14.10
66795;BMP280;53698;52.738;4.752;2022-10-29T07:01:25;102148.84;;;14.14
66795;BMP280;53698;52.738;4.752;2022-10-29T07:03:52;102149.97;;;14.16
66795;BMP280;53698;52.738;4.752;2022-10-29T07:06:18;102155.69;;;14.22
66795;BMP280;53698;52.738;4.752;2022-10-29T07:08:43;102159.88;;;14.26
66795;BMP280;53698;52.738;4.752;2022-10-29T07:11:08;102165.25;;;14.29
66795;BMP280;53698;52.738;4.752;2022-10-29T07:13:33;102158.00;;;14.35
66795;BMP280;53698;52.738;4.752;2022-10-29T07:15:59;102156.59;;;14.43
66795;BMP280;53698;52.738;4.752;2022-10-29T07:18:25;102143.44;;;14.50
66795;BMP280;53698;52.738;4.752;2022-10-29T07:20:50;102136.75;;;14.51
66795;BMP280;53698;52.738;4.752;2022-10-29T07:23:15;102136.84;;;14.48
66795;BMP280;53698;52.738;4.752;2022-10-29T07:25:41;102131.66;;;14.50
66795;BMP280;53698;52.738;4.752;2022-10-29T07:30:31;102119.34;;;14.42
66795;BMP280;53698;52.738;4.752;2022-10-29T07:32:57;102115.31;;;14.46
66795;BMP280;53698;52.738;4.752;2022-10-29T07:35:22;102119.81;;;14.53
66795;BMP280;53698;52.738;4.752;2022-10-29T07:37:47;102122.00;;;14.58
66795;BMP280;53698;52.738;4.752;2022-10-29T07:40:13;102123.00;;;14.63
66795;BMP280;53698;52.738;4.752;2022-10-29T07:42:38;102112.78;;;14.64
66795;BMP280;53698;52.738;4.752;2022-10-29T07:45:03;102114.88;;;14.72
66795;BMP280;53698;52.738;4.752;2022-10-29T07:47:29;102103.88;;;14.72
66795;BMP280;53698;52.738;4.752;2022-10-29T07:49:54;102111.34;;;14.84
66795;BMP280;53698;52.738;4.752;2022-10-29T07:52:19;102105.84;;;14.84
66795;BMP280;53698;52.738;4.752;2022-10-29T07:54:45;102120.38;;;14.96
66795;BMP280;53698;52.738;4.752;2022-10-29T07:57:10;102119.38;;;15.03
66795;BMP280;53698;52.738;4.752;2022-10-29T07:59:35;102121.25;;;15.06
66795;BMP280;53698;52.738;4.752;2022-10-29T08:02:00;102131.00;;;15.19
66795;BMP280;53698;52.738;4.752;2022-10-29T08:04:26;102120.00;;;15.19
66795;BMP280;53698;52.738;4.752;2022-10-29T08:06:51;102113.38;;;15.28
66795;BMP280;53698;52.738;4.752;2022-10-29T08:09:17;102121.16;;;15.42
66795;BMP280;53698;52.738;4.752;2022-10-29T08:11:42;102105.94;;;15.50
66795;BMP280;53698;52.738;4.752;2022-10-29T08:14:07;102112.53;;;15.52
66795;BMP280;53698;52.738;4.752;2022-10-29T08:16:32;102111.66;;;15.55
66795;BMP280;53698;52.738;4.752;2022-10-29T08:18:58;102114.91;;;15.62
66795;BMP280;53698;52.738;4.752;2022-10-29T08:21:24;102108.97;;;15.64
66795;BMP280;53698;52.738;4.752;2022-10-29T08:23:49;102114.78;;;15.66
66795;BMP280;53698;52.738;4.752;2022-10-29T08:26:14;102111.78;;;15.73
66795;BMP280;53698;52.738;4.752;2022-10-29T08:28:40;102114.53;;;15.73
66795;BMP280;53698;52.738;4.752;2022-10-29T08:31:07;102112.16;;;15.83
66795;BMP280;53698;52.738;4.752;2022-10-29T08:33:32;102113.59;;;15.88
66795;BMP280;53698;52.738;4.752;2022-10-29T08:35:57;102113.59;;;15.88
66795;BMP280;53698;52.738;4.752;2022-10-29T08:38:23;102115.53;;;15.99
66795;BMP280;53698;52.738;4.752;2022-10-29T08:45:52;102105.28;;;16.21
66795;BMP280;53698;52.738;4.752;2022-10-29T08:48:21;102104.38;;;16.24
66795;BMP280;53698;52.738;4.752;2022-10-29T08:53:24;102107.91;;;16.33
66795;BMP280;53698;52.738;4.752;2022-10-29T08:55:51;102101.13;;;16.46
66795;BMP280;53698;52.738;4.752;2022-10-29T09:00:42;102089.84;;;16.62
66795;BMP280;53698;52.738;4.752;2022-10-29T09:03:11;102090.03;;;16.67
66795;BMP280;53698;52.738;4.752;2022-10-29T09:05:59;102084.41;;;16.79
66795;BMP280;53698;52.738;4.752;2022-10-29T09:08:31;102082.16;;;16.95
66795;BMP280;53698;52.738;4.752;2022-10-29T09:11:01;102082.31;;;16.92
66795;BMP280;53698;52.738;4.752;2022-10-29T09:13:44;102089.78;;;16.82
66795;BMP280;53698;52.738;4.752;2022-10-29T09:21:11;102083.59;;;17.08
66795;BMP280;53698;52.738;4.752;2022-10-29T09:26:16;102063.03;;;17.09
66795;BMP280;53698;52.738;4.752;2022-10-29T09:31:41;102050.34;;;17.20
66795;BMP280;53698;52.738;4.752;2022-10-29T09:34:12;102048.50;;;17.35
66795;BMP280;53698;52.738;4.752;2022-10-29T09:36:42;102036.09;;;17.48
66795;BMP280;53698;52.738;4.752;2022-10-29T09:39:27;102036.84;;;17.66
66795;BMP280;53698;52.738;4.752;2022-10-29T09:41:56;102033.16;;;17.86
66795;BMP280;53698;52.738;4.752;2022-10-29T09:44:22;102033.16;;;17.86
66795;BMP280;53698;52.738;4.752;2022-10-29T09:49:39;102043.88;;;18.02
66795;BMP280;53698;52.738;4.752;2022-10-29T09:52:13;102025.53;;;18.22
66795;BMP280;53698;52.738;4.752;2022-10-29T09:54:40;102029.16;;;18.36
66795;BMP280;53698;52.738;4.752;2022-10-29T09:57:05;102030.00;;;18.51
66795;BMP280;53698;52.738;4.752;2022-10-29T09:59:41;102017.75;;;18.43
66795;BMP280;53698;52.738;4.752;2022-10-29T10:04:56;102004.13;;;18.71
66795;BMP280;53698;52.738;4.752;2022-10-29T10:07:25;102002.00;;;18.67
66795;BMP280;53698;52.738;4.752;2022-10-29T10:10:00;101988.97;;;19.04
66795;BMP280;53698;52.738;4.752;2022-10-29T10:15:01;101986.41;;;19.01
66795;BMP280;53698;52.738;4.752;2022-10-29T10:17:27;102009.25;;;18.87
66795;BMP280;53698;52.738;4.752;2022-10-29T10:19:52;102009.97;;;18.73
66795;BMP280;53698;52.738;4.752;2022-10-29T10:22:19;101994.69;;;19.01
66795;BMP280;53698;52.738;4.752;2022-10-29T10:24:45;101972.56;;;19.01
66795;BMP280;53698;52.738;4.752;2022-10-29T10:29:42;101987.50;;;19.17
66795;BMP280;53698;52.738;4.752;2022-10-29T10:37:06;101977.63;;;19.39
66795;BMP280;53698;52.738;4.752;2022-10-29T10:42:01;101961.94;;;19.22
66795;BMP280;53698;52.738;4.752;2022-10-29T10:44:28;101950.69;;;19.25
66795;BMP280;53698;52.738;4.752;2022-10-29T10:46:54;101960.31;;;19.30
66795;BMP280;53698;52.738;4.752;2022-10-29T10:49:22;101957.75;;;19.40
66795;BMP280;53698;52.738;4.752;2022-10-29T10:51:53;101953.06;;;19.46
66795;BMP280;53698;52.738;4.752;2022-10-29T10:56:50;101953.41;;;19.62
66795;BMP280;53698;52.738;4.752;2022-10-29T10:59:16;101947.44;;;20.11
66795;BMP280;53698;52.738;4.752;2022-10-29T11:01:43;101935.00;;;20.35
66795;BMP280;53698;52.738;4.752;2022-10-29T11:06:36;101919.13;;;20.94
66795;BMP280;53698;52.738;4.752;2022-10-29T11:11:36;101908.91;;;21.05
66795;BMP280;53698;52.738;4.752;2022-10-29T11:14:04;101906.75;;;20.95
66795;BMP280;53698;52.738;4.752;2022-10-29T11:21:34;101911.22;;;21.31
66795;BMP280;53698;52.738;4.752;2022-10-29T11:31:51;101919.66;;;21.17
66795;BMP280;53698;52.738;4.752;2022-10-29T11:39:48;101891.78;;;21.56
66795;BMP280;53698;52.738;4.752;2022-10-29T11:42:16;101877.13;;;22.62
66795;BMP280;53698;52.738;4.752;2022-10-29T11:44:41;101862.16;;;23.43
66795;BMP280;53698;52.738;4.752;2022-10-29T11:54:52;101839.31;;;26.29
66795;BMP280;53698;52.738;4.752;2022-10-29T11:57:39;101839.44;;;24.98
66795;BMP280;53698;52.738;4.752;2022-10-29T12:05:40;101830.50;;;23.41
66795;BMP280;53698;52.738;4.752;2022-10-29T12:10:53;101838.78;;;24.15
66795;BMP280;53698;52.738;4.752;2022-10-29T12:20:44;101830.06;;;25.01
66795;BMP280;53698;52.738;4.752;2022-10-29T12:23:26;101828.88;;;24.20
66795;BMP280;53698;52.738;4.752;2022-10-29T12:26:00;101819.84;;;23.77
66795;BMP280;53698;52.738;4.752;2022-10-29T12:31:19;101812.00;;;23.32
66795;BMP280;53698;52.738;4.752;2022-10-29T12:33:49;101805.66;;;23.96
66795;BMP280;53698;52.738;4.752;2022-10-29T12:38:46;101783.72;;;26.02
66795;BMP280;53698;52.738;4.752;2022-10-29T12:43:57;101788.19;;;26.28
66795;BMP280;53698;52.738;4.752;2022-10-29T12:46:29;101786.41;;;26.31
66795;BMP280;53698;52.738;4.752;2022-10-29T12:49:04;101789.41;;;26.33
66795;BMP280;53698;52.738;4.752;2022-10-29T12:51:44;101770.78;;;26.58
66795;BMP280;53698;52.738;4.752;2022-10-29T12:57:03;101786.56;;;25.68
66795;BMP280;53698;52.738;4.752;2022-10-29T12:59:30;101777.34;;;25.50
66795;BMP280;53698;52.738;4.752;2022-10-29T13:02:16;101788.75;;;24.33
66795;BMP280;53698;52.738;4.752;2022-10-29T13:05:10;101776.25;;;23.95
66795;BMP280;53698;52.738;4.752;2022-10-29T13:07:26;101777.09;;;23.42
66795;BMP280;53698;52.738;4.752;2022-10-29T13:13:37;101780.84;;;23.12
66795;BMP280;53698;52.738;4.752;2022-10-29T13:15:31;101775.56;;;23.30
66795;BMP280;53698;52.738;4.752;2022-10-29T13:17:59;101769.25;;;23.35
66795;BMP280;53698;52.738;4.752;2022-10-29T13:20:36;101764.63;;;23.59
66795;BMP280;53698;52.738;4.752;2022-10-29T13:23:02;101767.44;;;23.43
66795;BMP280;53698;52.738;4.752;2022-10-29T13:28:40;101783.34;;;23.96
66795;BMP280;53698;52.738;4.752;2022-10-29T13:30:52;101775.00;;;24.57
66795;BMP280;53698;52.738;4.752;2022-10-29T13:38:39;101770.69;;;24.56
66795;BMP280;53698;52.738;4.752;2022-10-29T13:41:12;101769.72;;;24.37
66795;BMP280;53698;52.738;4.752;2022-10-29T13:43:38;101762.72;;;24.20
66795;BMP280;53698;52.738;4.752;2022-10-29T13:48:39;101770.16;;;23.75
66795;BMP280;53698;52.738;4.752;2022-10-29T13:51:06;101763.34;;;23.71
66795;BMP280;53698;52.738;4.752;2022-10-29T13:53:42;101765.81;;;24.06
66795;BMP280;53698;52.738;4.752;2022-10-29T13:56:12;101767.75;;;24.77
66795;BMP280;53698;52.738;4.752;2022-10-29T13:58:39;101745.09;;;25.49
66795;BMP280;53698;52.738;4.752;2022-10-29T14:01:10;101748.34;;;25.52
66795;BMP280;53698;52.738;4.752;2022-10-29T14:03:40;101750.28;;;25.39
66795;BMP280;53698;52.738;4.752;2022-10-29T14:06:16;101745.91;;;25.44
66795;BMP280;53698;52.738;4.752;2022-10-29T14:11:35;101747.28;;;24.14
66795;BMP280;53698;52.738;4.752;2022-10-29T14:14:02;101751.47;;;23.44
66795;BMP280;53698;52.738;4.752;2022-10-29T14:16:29;101752.72;;;23.00
66795;BMP280;53698;52.738;4.752;2022-10-29T14:18:55;101759.78;;;22.69
66795;BMP280;53698;52.738;4.752;2022-10-29T14:21:21;101753.13;;;22.45
66795;BMP280;53698;52.738;4.752;2022-10-29T14:24:08;101755.56;;;22.16
66795;BMP280;53698;52.738;4.752;2022-10-29T14:26:33;101757.50;;;22.00
66795;BMP280;53698;52.738;4.752;2022-10-29T14:32:12;101767.69;;;21.73
66795;BMP280;53698;52.738;4.752;2022-10-29T14:34:39;101769.41;;;21.70
66795;BMP280;53698;52.738;4.752;2022-10-29T14:37:13;101766.31;;;21.58
66795;BMP280;53698;52.738;4.752;2022-10-29T14:39:51;101774.19;;;21.64
66795;BMP280;53698;52.738;4.752;2022-10-29T14:44:49;101758.22;;;21.54
66795;BMP280;53698;52.738;4.752;2022-10-29T14:47:21;101766.78;;;21.51
66795;BMP280;53698;52.738;4.752;2022-10-29T14:49:47;101755.44;;;21.54
66795;BMP280;53698;52.738;4.752;2022-10-29T14:52:59;101768.00;;;21.44
66795;BMP280;53698;52.738;4.752;2022-10-29T14:55:05;101757.09;;;21.41
66795;BMP280;53698;52.738;4.752;2022-10-29T14:57:32;101749.50;;;21.36
66795;BMP280;53698;52.738;4.752;2022-10-29T14:59:59;101737.81;;;21.27
66795;BMP280;53698;52.738;4.752;2022-10-29T15:02:27;101741.03;;;21.20
66795;BMP280;53698;52.738;4.752;2022-10-29T15:04:57;101737.00;;;21.21
66795;BMP280;53698;52.738;4.752;2022-10-29T15:10:15;101740.72;;;21.13
66795;BMP280;53698;52.738;4.752;2022-10-29T15:12:34;101735.47;;;21.15
66795;BMP280;53698;52.738;4.752;2022-10-29T15:15:10;101737.16;;;21.07
66795;BMP280;53698;52.738;4.752;2022-10-29T15:20:20;101730.63;;;20.85
66795;BMP280;53698;52.738;4.752;2022-10-29T15:22:46;101734.28;;;20.72
66795;BMP280;53698;52.738;4.752;2022-10-29T15:25:18;101721.59;;;20.65
66795;BMP280;53698;52.738;4.752;2022-10-29T15:27:46;101727.09;;;20.60
66795;BMP280;53698;52.738;4.752;2022-10-29T15:30:21;101722.00;;;20.53
66795;BMP280;53698;52.738;4.752;2022-10-29T15:32:51;101723.22;;;20.52
66795;BMP280;53698;52.738;4.752;2022-10-29T15:35:22;101723.66;;;20.45
66795;BMP280;53698;52.738;4.752;2022-10-29T15:37:47;101720.81;;;20.40
66795;BMP280;53698;52.738;4.752;2022-10-29T15:40:21;101729.34;;;20.37
66795;BMP280;53698;52.738;4.752;2022-10-29T15:42:47;101727.00;;;20.30
66795;BMP280;53698;52.738;4.752;2022-10-29T15:47:47;101721.53;;;20.16
66795;BMP280;53698;52.738;4.752;2022-10-29T15:50:14;101716.69;;;20.11
66795;BMP280;53698;52.738;4.752;2022-10-29T15:52:41;101718.16;;;20.06
66795;BMP280;53698;52.738;4.752;2022-10-29T15:55:12;101721.06;;;19.98
66795;BMP280;53698;52.738;4.752;2022-10-29T15:57:38;101717.16;;;19.90
66795;BMP280;53698;52.738;4.752;2022-10-29T16:00:04;101709.78;;;19.82
66795;BMP280;53698;52.738;4.752;2022-10-29T16:02:30;101699.59;;;19.73
66795;BMP280;53698;52.738;4.752;2022-10-29T16:04:55;101707.34;;;19.70
66795;BMP280;53698;52.738;4.752;2022-10-29T16:07:20;101704.97;;;19.63
66795;BMP280;53698;52.738;4.752;2022-10-29T16:09:47;101698.34;;;19.55
66795;BMP280;53698;52.738;4.752;2022-10-29T16:12:13;101701.78;;;19.50
66795;BMP280;53698;52.738;4.752;2022-10-29T16:14:38;101694.41;;;19.47
66795;BMP280;53698;52.738;4.752;2022-10-29T16:17:05;101699.38;;;19.43
66795;BMP280;53698;52.738;4.752;2022-10-29T16:19:33;101691.03;;;19.38
66795;BMP280;53698;52.738;4.752;2022-10-29T16:21:59;101691.69;;;19.33
66795;BMP280;53698;52.738;4.752;2022-10-29T16:24:24;101697.16;;;19.28
66795;BMP280;53698;52.738;4.752;2022-10-29T16:26:51;101692.84;;;19.27
66795;BMP280;53698;52.738;4.752;2022-10-29T16:29:16;101695.31;;;19.25
66795;BMP280;53698;52.738;4.752;2022-10-29T16:31:41;101696.28;;;19.22
66795;BMP280;53698;52.738;4.752;2022-10-29T16:34:08;101705.09;;;19.20